createdAt,value
2022-09-18T00:01:32.710Z,0.65
2022-09-18T00:04:04.088Z,0.30
2022-09-18T00:06:36.393Z,0.57
2022-09-18T00:09:08.262Z,0.70
2022-09-18T00:11:44.022Z,0.45
2022-09-18T00:14:16.180Z,0.68
2022-09-18T00:16:43.353Z,0.45
2022-09-18T00:19:11.571Z,0.50
2022-09-18T00:21:48.162Z,0.38
2022-09-18T00:24:18.908Z,0.65
2022-09-18T00:26:47.402Z,0.40
2022-09-18T00:29:16.721Z,0.60
2022-09-18T00:31:44.630Z,1.10
2022-09-18T00:34:14.475Z,1.05
2022-09-18T00:36:43.195Z,1.02
2022-09-18T00:39:11.569Z,0.45
2022-09-18T00:41:42.070Z,0.85
2022-09-18T00:44:33.428Z,0.20
2022-09-18T00:47:09.572Z,1.17
2022-09-18T00:49:41.216Z,1.25
2022-09-18T00:52:10.204Z,1.35
2022-09-18T00:57:19.187Z,2.70
2022-09-18T00:59:49.033Z,3.17
2022-09-18T01:02:16.617Z,4.03
2022-09-18T01:04:43.661Z,5.55
2022-09-18T01:07:32.226Z,5.70
2022-09-18T01:10:31.051Z,5.22
2022-09-18T01:16:36.193Z,3.65
2022-09-18T01:19:26.684Z,4.10
2022-09-18T01:22:04.368Z,2.47
2022-09-18T01:25:10.826Z,2.38
2022-09-18T01:28:12.003Z,2.45
2022-09-18T01:30:42.782Z,2.78
2022-09-18T01:33:20.268Z,2.65
2022-09-18T01:35:55.103Z,3.17
2022-09-18T01:38:32.625Z,2.22
2022-09-18T01:41:20.332Z,2.35
2022-09-18T01:43:54.177Z,1.90
2022-09-18T01:46:24.119Z,2.45
2022-09-18T01:48:58.470Z,2.15
2022-09-18T01:51:36.105Z,2.85
2022-09-18T01:54:19.240Z,2.25
2022-09-18T01:57:05.756Z,1.70
2022-09-18T01:59:59.998Z,1.60
2022-09-18T02:02:33.074Z,1.40
2022-09-18T02:05:06.972Z,1.88
2022-09-18T02:07:39.485Z,2.00
2022-09-18T02:10:07.651Z,3.10
2022-09-18T02:12:39.524Z,1.83
2022-09-18T02:15:12.854Z,2.67
2022-09-18T02:17:57.064Z,4.25
2022-09-18T02:20:37.256Z,3.03
2022-09-18T02:23:08.538Z,2.67
2022-09-18T02:25:49.161Z,3.05
2022-09-18T02:28:21.049Z,1.95
2022-09-18T02:30:48.346Z,1.60
2022-09-18T02:33:31.538Z,1.33
2022-09-18T02:36:54.990Z,1.15
2022-09-18T02:39:54.307Z,0.60
2022-09-18T02:43:02.402Z,0.60
2022-09-18T02:46:07.068Z,0.63
2022-09-18T02:48:58.043Z,0.90
2022-09-18T02:51:53.853Z,0.60
2022-09-18T02:54:48.515Z,0.80
2022-09-18T02:57:26.293Z,0.60
2022-09-18T02:59:59.905Z,0.90
2022-09-18T03:02:27.270Z,1.05
2022-09-18T03:04:54.880Z,0.95
2022-09-18T03:07:37.700Z,0.38
2022-09-18T03:10:06.215Z,0.60
2022-09-18T03:12:33.777Z,0.50
2022-09-18T03:15:00.824Z,0.98
2022-09-18T03:17:28.103Z,0.50
2022-09-18T03:19:55.256Z,0.32
2022-09-18T03:22:22.844Z,0.20
2022-09-18T03:24:49.939Z,0.10
2022-09-18T03:27:18.552Z,0.00
2022-09-18T03:29:46.260Z,0.00
2022-09-18T03:32:13.388Z,0.00
2022-09-18T03:34:46.598Z,0.20
2022-09-18T03:37:15.084Z,0.08
2022-09-18T03:39:42.274Z,0.20
2022-09-18T03:42:14.272Z,0.20
2022-09-18T03:44:41.461Z,0.00
2022-09-18T03:47:18.236Z,0.00
2022-09-18T03:49:47.089Z,0.00
2022-09-18T03:52:14.267Z,0.00
2022-09-18T03:54:54.263Z,0.00
2022-09-18T03:57:39.749Z,0.00
2022-09-18T04:00:30.230Z,0.10
2022-09-18T04:03:04.933Z,0.50
2022-09-18T04:05:32.007Z,1.52
2022-09-18T04:08:18.298Z,0.70
2022-09-18T04:11:06.953Z,0.08
2022-09-18T04:13:35.031Z,0.85
2022-09-18T04:16:07.446Z,0.70
2022-09-18T04:18:34.813Z,0.50
2022-09-18T04:21:03.168Z,0.00
2022-09-18T04:23:31.305Z,0.82
2022-09-18T04:25:58.431Z,0.00
2022-09-18T04:28:30.551Z,0.40
2022-09-18T04:30:58.413Z,0.10
2022-09-18T04:33:25.519Z,0.17
2022-09-18T04:35:53.492Z,0.75
2022-09-18T04:38:26.777Z,0.00
2022-09-18T04:40:59.795Z,0.13
2022-09-18T04:43:28.378Z,0.47
2022-09-18T04:45:55.744Z,0.10
2022-09-18T04:48:23.388Z,0.20
2022-09-18T04:50:51.460Z,0.10
2022-09-18T04:53:19.126Z,0.00
2022-09-18T04:55:48.157Z,0.10
2022-09-18T04:58:19.284Z,0.10
2022-09-18T05:00:50.740Z,0.38
2022-09-18T05:03:20.505Z,0.05
2022-09-18T05:05:50.575Z,0.00
2022-09-18T05:08:18.182Z,0.43
2022-09-18T05:10:45.902Z,0.10
2022-09-18T05:13:13.936Z,0.00
2022-09-18T05:15:55.264Z,0.00
2022-09-18T05:18:23.464Z,0.17
2022-09-18T05:20:54.523Z,0.30
2022-09-18T05:23:21.651Z,0.10
2022-09-18T05:25:48.762Z,0.10
2022-09-18T05:28:18.604Z,0.10
2022-09-18T05:30:49.496Z,0.30
2022-09-18T05:33:16.638Z,0.08
2022-09-18T05:35:43.916Z,0.22
2022-09-18T05:38:11.627Z,0.20
2022-09-18T05:40:42.833Z,0.30
2022-09-18T05:43:10.321Z,0.47
2022-09-18T05:45:39.780Z,0.28
2022-09-18T05:48:15.756Z,0.63
2022-09-18T05:50:43.038Z,0.30
2022-09-18T05:53:18.364Z,0.43
2022-09-18T05:56:06.664Z,0.28
2022-09-18T05:58:34.823Z,0.47
2022-09-18T06:01:03.939Z,0.57
2022-09-18T06:03:51.121Z,0.60
2022-09-18T06:06:19.753Z,0.57
2022-09-18T06:08:46.977Z,0.52
2022-09-18T06:11:15.605Z,0.40
2022-09-18T06:13:43.813Z,0.40
2022-09-18T06:16:11.068Z,0.57
2022-09-18T06:18:57.972Z,0.95
2022-09-18T06:21:25.596Z,0.60
2022-09-18T06:23:52.876Z,0.50
2022-09-18T06:26:40.207Z,0.60
2022-09-18T06:29:07.295Z,1.25
2022-09-18T06:31:47.670Z,1.40
2022-09-18T06:34:21.141Z,1.10
2022-09-18T06:36:48.832Z,1.13
2022-09-18T06:39:22.888Z,1.30
2022-09-18T06:41:54.968Z,2.17
2022-09-18T06:44:42.465Z,2.22
2022-09-18T06:47:09.700Z,1.58
2022-09-18T06:49:42.143Z,1.02
2022-09-18T06:52:09.501Z,1.27
2022-09-18T06:54:37.938Z,1.73
2022-09-18T06:57:07.379Z,1.80
2022-09-18T06:59:34.558Z,1.45
2022-09-18T07:02:01.782Z,1.55
2022-09-18T07:04:52.427Z,1.90
2022-09-18T07:07:20.408Z,1.73
2022-09-18T07:09:50.454Z,0.75
2022-09-18T07:12:48.313Z,1.05
2022-09-18T07:15:19.382Z,1.30
2022-09-18T07:20:16.305Z,1.08
2022-09-18T07:22:53.308Z,1.42
2022-09-18T07:25:22.046Z,1.45
2022-09-18T07:27:49.851Z,2.03
2022-09-18T07:32:46.016Z,1.85
2022-09-18T07:35:17.170Z,1.02
2022-09-18T07:37:44.406Z,1.40
2022-09-18T07:40:17.703Z,1.70
2022-09-18T07:43:09.467Z,2.13
2022-09-18T07:45:44.068Z,1.40
2022-09-18T07:48:11.540Z,1.45
2022-09-18T07:50:45.907Z,1.40
2022-09-18T07:53:13.057Z,1.70
2022-09-18T07:55:46.703Z,1.58
2022-09-18T07:58:14.485Z,1.27
2022-09-18T08:00:52.271Z,2.40
2022-09-18T08:03:21.359Z,1.80
2022-09-18T08:06:20.839Z,1.15
2022-09-18T08:09:01.889Z,2.15
2022-09-18T08:11:50.494Z,3.17
2022-09-18T08:14:29.136Z,1.70
2022-09-18T08:17:22.553Z,1.70
2022-09-18T08:20:08.959Z,1.50
2022-09-18T08:23:05.478Z,1.05
2022-09-18T08:25:33.412Z,1.20
2022-09-18T08:28:02.296Z,1.60
2022-09-18T08:30:36.191Z,1.50
2022-09-18T08:33:09.873Z,2.13
2022-09-18T08:35:37.347Z,1.60
2022-09-18T08:38:20.181Z,1.52
2022-09-18T08:41:19.645Z,1.70
2022-09-18T08:44:08.090Z,1.85
2022-09-18T08:46:59.229Z,1.75
2022-09-18T08:49:44.482Z,1.60
2022-09-18T08:52:27.655Z,1.58
2022-09-18T08:55:24.248Z,1.38
2022-09-18T08:59:03.473Z,1.88
2022-09-18T09:01:59.021Z,1.48
2022-09-18T09:04:29.704Z,1.98
2022-09-18T09:07:21.667Z,1.67
2022-09-18T09:10:37.672Z,1.92
2022-09-18T09:13:31.760Z,1.17
2022-09-18T09:16:29.423Z,0.95
2022-09-18T09:19:07.038Z,0.90
2022-09-18T09:22:40.151Z,1.25
2022-09-18T09:25:38.085Z,0.98
2022-09-18T09:28:45.501Z,1.08
2022-09-18T09:31:23.743Z,1.30
2022-09-18T09:34:36.446Z,1.85
2022-09-18T09:37:23.348Z,0.88
2022-09-18T09:40:15.126Z,2.50
2022-09-18T09:43:09.702Z,0.90
2022-09-18T09:45:50.420Z,0.93
2022-09-18T09:48:22.813Z,1.60
2022-09-18T09:51:13.583Z,1.35
2022-09-18T09:53:40.880Z,1.38
2022-09-18T09:56:52.167Z,1.55
2022-09-18T09:59:44.548Z,1.30
2022-09-18T10:03:05.761Z,1.50
2022-09-18T10:06:23.044Z,1.42
2022-09-18T10:09:34.419Z,1.42
2022-09-18T10:12:21.905Z,1.83
2022-09-18T10:14:54.102Z,1.58
2022-09-18T10:17:22.833Z,1.60
2022-09-18T10:19:50.790Z,1.75
2022-09-18T10:22:22.596Z,2.00
2022-09-18T10:25:06.997Z,1.67
2022-09-18T10:27:34.088Z,1.60
2022-09-18T10:30:13.880Z,1.52
2022-09-18T10:32:46.876Z,2.22
2022-09-18T10:35:44.502Z,1.88
2022-09-18T10:38:32.476Z,1.70
2022-09-18T10:41:35.200Z,1.25
2022-09-18T10:44:14.491Z,1.88
2022-09-18T10:47:18.592Z,1.55
2022-09-18T10:50:05.544Z,1.55
2022-09-18T10:52:46.866Z,1.45
2022-09-18T10:55:32.456Z,1.35
2022-09-18T10:58:15.059Z,1.17
2022-09-18T11:01:05.324Z,1.05
2022-09-18T11:03:39.588Z,1.02
2022-09-18T11:06:25.206Z,1.38
2022-09-18T11:09:01.586Z,1.30
2022-09-18T11:11:36.439Z,1.30
2022-09-18T11:14:29.504Z,1.90
2022-09-18T11:17:41.902Z,0.57
2022-09-18T11:20:38.806Z,0.77
2022-09-18T11:23:30.690Z,0.57
2022-09-18T11:26:29.717Z,0.85
2022-09-18T11:29:32.567Z,0.32
2022-09-18T11:32:21.524Z,0.50
2022-09-18T11:35:05.030Z,1.00
2022-09-18T11:37:43.556Z,1.10
2022-09-18T11:40:45.414Z,1.92
2022-09-18T11:43:25.027Z,1.35
2022-09-18T11:46:13.873Z,1.05
2022-09-18T11:49:01.297Z,0.95
2022-09-18T11:51:47.605Z,1.77
2022-09-18T11:54:46.073Z,1.08
2022-09-18T11:57:32.998Z,1.02
2022-09-18T12:00:16.823Z,1.13
2022-09-18T12:03:17.367Z,0.93
2022-09-18T12:06:13.540Z,0.93
2022-09-18T12:09:05.288Z,0.90
2022-09-18T12:11:42.408Z,0.80
2022-09-18T12:14:44.073Z,0.80
2022-09-18T12:17:56.487Z,0.80
2022-09-18T12:20:40.994Z,1.35
2022-09-18T12:23:22.235Z,1.45
2022-09-18T12:26:39.188Z,0.73
2022-09-18T12:29:33.915Z,0.75
2022-09-18T12:32:55.495Z,0.98
2022-09-18T12:35:58.932Z,0.85
2022-09-18T12:38:57.282Z,1.23
2022-09-18T12:41:41.045Z,0.85
2022-09-18T12:45:00.490Z,1.00
2022-09-18T12:47:56.861Z,1.35
2022-09-18T12:50:53.985Z,1.00
2022-09-18T12:53:48.495Z,1.60
2022-09-18T12:56:47.805Z,1.00
2022-09-18T12:59:53.374Z,0.88
2022-09-18T13:02:49.166Z,1.35
2022-09-18T13:06:00.315Z,1.70
2022-09-18T13:08:49.060Z,1.45
2022-09-18T13:11:38.273Z,1.50
2022-09-18T13:14:14.078Z,0.98
2022-09-18T13:16:50.588Z,0.95
2022-09-18T13:19:32.878Z,1.65
2022-09-18T13:22:06.524Z,0.85
2022-09-18T13:24:36.183Z,2.00
2022-09-18T13:27:10.214Z,1.00
2022-09-18T13:29:52.280Z,1.13
2022-09-18T13:32:33.997Z,1.13
2022-09-18T13:35:14.318Z,1.13
2022-09-18T13:37:42.969Z,0.98
2022-09-18T13:40:39.807Z,1.00
2022-09-18T13:43:21.787Z,0.82
2022-09-18T13:45:49.513Z,1.20
2022-09-18T13:48:30.201Z,1.05
2022-09-18T13:51:21.421Z,0.82
2022-09-18T13:54:11.904Z,1.48
2022-09-18T13:57:14.079Z,2.00
2022-09-18T13:59:50.408Z,0.88
2022-09-18T14:02:26.526Z,0.63
2022-09-18T14:05:00.791Z,1.23
2022-09-18T14:07:27.786Z,1.23
2022-09-18T14:10:05.217Z,2.22
2022-09-18T14:12:34.947Z,0.85
2022-09-18T14:15:23.928Z,1.15
2022-09-18T14:20:52.005Z,0.70
2022-09-18T14:23:40.036Z,1.25
2022-09-18T14:26:34.111Z,1.15
2022-09-18T14:29:09.549Z,1.92
2022-09-18T14:31:51.134Z,1.13
2022-09-18T14:34:38.444Z,1.15
2022-09-18T14:37:29.691Z,0.88
2022-09-18T14:39:58.358Z,1.30
2022-09-18T14:42:41.103Z,1.00
2022-09-18T14:45:11.775Z,1.10
2022-09-18T14:47:45.090Z,1.30
2022-09-18T14:50:36.908Z,1.00
2022-09-18T14:53:23.975Z,1.08
2022-09-18T14:55:58.189Z,1.17
2022-09-18T14:58:34.007Z,1.05
2022-09-18T15:01:05.335Z,0.80
2022-09-18T15:03:41.500Z,0.50
2022-09-18T15:06:50.834Z,1.95
2022-09-18T15:09:32.206Z,0.35
2022-09-18T15:12:03.235Z,0.90
2022-09-18T15:14:45.489Z,0.52
2022-09-18T15:17:24.515Z,0.57
2022-09-18T15:20:13.946Z,0.93
2022-09-18T15:22:41.126Z,0.60
2022-09-18T15:25:17.040Z,0.63
2022-09-18T15:27:45.399Z,0.80
2022-09-18T15:30:20.277Z,1.08
2022-09-18T15:32:55.772Z,0.65
2022-09-18T15:35:34.700Z,0.80
2022-09-18T15:38:13.381Z,1.25
2022-09-18T15:40:40.896Z,1.30
2022-09-18T15:43:30.068Z,1.08
2022-09-18T15:46:24.348Z,1.38
2022-09-18T15:48:52.146Z,0.40
2022-09-18T15:51:35.812Z,0.30
2022-09-18T15:54:12.540Z,0.77
2022-09-18T15:57:11.405Z,1.80
2022-09-18T15:59:40.132Z,0.70
2022-09-18T16:02:38.374Z,0.20
2022-09-18T16:05:11.551Z,0.20
2022-09-18T16:07:46.947Z,0.93
2022-09-18T16:10:38.894Z,0.45
2022-09-18T16:13:25.919Z,0.75
2022-09-18T16:16:10.659Z,1.50
2022-09-18T16:19:02.311Z,0.20
2022-09-18T16:21:29.974Z,0.40
2022-09-18T16:24:00.693Z,0.40
2022-09-18T16:26:35.756Z,1.60
2022-09-18T16:29:13.862Z,1.17
2022-09-18T16:31:41.027Z,0.67
2022-09-18T16:34:26.944Z,0.13
2022-09-18T16:36:55.367Z,0.57
2022-09-18T16:39:25.462Z,0.65
2022-09-18T16:41:52.967Z,1.15
2022-09-18T16:44:20.061Z,0.30
2022-09-18T16:46:55.119Z,0.30
2022-09-18T16:49:28.001Z,0.77
2022-09-18T16:51:57.036Z,0.50
2022-09-18T16:54:25.209Z,0.30
2022-09-18T16:57:17.597Z,0.50
2022-09-18T16:59:45.391Z,0.15
2022-09-18T17:02:16.219Z,0.20
2022-09-18T17:04:43.676Z,0.60
2022-09-18T17:07:10.852Z,0.30
2022-09-18T17:09:38.163Z,0.30
2022-09-18T17:12:05.623Z,0.10
2022-09-18T17:14:34.174Z,0.28
2022-09-18T17:17:01.515Z,0.15
2022-09-18T17:19:28.699Z,0.35
2022-09-18T17:21:56.050Z,0.10
2022-09-18T17:24:25.641Z,0.43
2022-09-18T17:26:53.400Z,0.15
2022-09-18T17:29:21.060Z,0.30
2022-09-18T17:31:48.662Z,0.30
2022-09-18T17:34:16.004Z,0.47
2022-09-18T17:36:43.184Z,0.22
2022-09-18T17:39:11.123Z,0.35
2022-09-18T17:41:38.764Z,0.30
2022-09-18T17:44:06.070Z,0.20
2022-09-18T17:46:33.277Z,0.43
2022-09-18T17:49:01.197Z,1.33
2022-09-18T17:51:29.261Z,0.25
2022-09-18T17:54:02.233Z,0.95
2022-09-18T17:56:31.039Z,1.10
2022-09-18T17:59:08.099Z,0.50
2022-09-18T18:01:39.354Z,0.30
2022-09-18T18:04:07.016Z,0.30
2022-09-18T18:06:36.377Z,1.02
2022-09-18T18:09:05.995Z,0.98
2022-09-18T18:11:33.235Z,1.70
2022-09-18T18:14:00.378Z,0.77
2022-09-18T18:16:30.613Z,0.50
2022-09-18T18:19:04.554Z,0.65
2022-09-18T18:21:34.148Z,0.20
2022-09-18T18:24:07.261Z,0.32
2022-09-18T18:26:38.917Z,0.30
2022-09-18T18:29:09.070Z,0.25
2022-09-18T18:31:39.143Z,0.20
2022-09-18T18:34:09.983Z,0.03
2022-09-18T18:36:40.295Z,0.17
2022-09-18T18:39:12.336Z,0.30
2022-09-18T18:41:40.207Z,0.40
2022-09-18T18:44:07.745Z,0.22
2022-09-18T18:46:36.606Z,0.10
2022-09-18T18:49:11.054Z,0.30
2022-09-18T18:51:46.902Z,0.15
2022-09-18T18:54:17.291Z,1.15
2022-09-18T18:56:46.415Z,3.78
2022-09-18T19:01:43.374Z,0.88
2022-09-18T19:04:14.083Z,0.73
2022-09-18T19:06:43.265Z,0.90
2022-09-18T19:11:49.831Z,0.55
2022-09-18T19:14:21.354Z,0.80
2022-09-18T19:16:50.967Z,0.32
2022-09-18T19:19:21.072Z,0.93
2022-09-18T19:21:48.256Z,0.68
2022-09-18T19:24:18.072Z,1.15
2022-09-18T19:26:47.185Z,0.80
2022-09-18T19:31:45.757Z,2.08
2022-09-18T19:36:46.491Z,0.63
2022-09-18T19:39:14.225Z,0.50
2022-09-18T19:42:03.865Z,0.88
2022-09-18T19:45:02.919Z,0.43
2022-09-18T19:47:45.768Z,0.65
2022-09-18T19:50:28.115Z,0.60
2022-09-18T19:52:56.007Z,0.38
2022-09-18T19:55:23.314Z,0.57
2022-09-18T19:57:55.864Z,1.77
2022-09-18T20:00:24.465Z,2.08
2022-09-18T20:02:56.228Z,3.20
2022-09-18T20:05:23.341Z,0.50
2022-09-18T20:07:50.665Z,0.70
2022-09-18T20:10:18.645Z,0.32
2022-09-18T20:12:46.911Z,0.50
2022-09-18T20:15:14.148Z,0.35
2022-09-18T20:17:41.273Z,0.50
2022-09-18T20:20:13.277Z,0.63
2022-09-18T20:22:43.181Z,1.23
2022-09-18T20:25:11.052Z,1.23
2022-09-18T20:27:41.144Z,0.90
2022-09-18T20:30:11.923Z,1.10
2022-09-18T20:32:39.432Z,0.63
2022-09-18T20:35:07.131Z,0.57
2022-09-18T20:37:34.238Z,3.08
2022-09-18T20:40:12.178Z,0.57
2022-09-18T20:42:39.861Z,0.30
2022-09-18T20:45:07.990Z,0.38
2022-09-18T20:47:36.897Z,0.50
2022-09-18T20:50:12.914Z,0.50
2022-09-18T20:52:44.862Z,0.45
2022-09-18T20:55:16.774Z,0.47
2022-09-18T20:57:45.479Z,0.38
2022-09-18T21:00:17.332Z,1.23
2022-09-18T21:02:50.942Z,0.77
2022-09-18T21:05:18.413Z,0.35
2022-09-18T21:07:45.632Z,0.60
2022-09-18T21:10:14.207Z,0.63
2022-09-18T21:12:41.513Z,0.40
2022-09-18T21:15:13.758Z,2.47
2022-09-18T21:17:42.282Z,0.30
2022-09-18T21:20:10.140Z,0.40
2022-09-18T21:22:57.234Z,0.38
2022-09-18T21:25:24.842Z,0.50
2022-09-18T21:27:55.028Z,0.30
2022-09-18T21:30:25.928Z,0.38
2022-09-18T21:32:55.659Z,0.30
2022-09-18T21:35:23.128Z,0.20
2022-09-18T21:37:51.193Z,0.55
2022-09-18T21:40:18.392Z,0.43
2022-09-18T21:42:46.958Z,0.75
2022-09-18T21:45:20.287Z,0.40
2022-09-18T21:47:49.312Z,0.52
2022-09-18T21:50:16.970Z,0.50
2022-09-18T21:52:44.136Z,0.57
2022-09-18T21:55:11.395Z,2.15
2022-09-18T21:57:38.532Z,2.00
2022-09-18T22:00:09.048Z,0.52
2022-09-18T22:02:40.399Z,1.85
2022-09-18T22:05:11.001Z,1.10
2022-09-18T22:07:38.183Z,0.20
2022-09-18T22:10:06.732Z,0.88
2022-09-18T22:12:38.239Z,0.80
2022-09-18T22:15:05.942Z,1.52
2022-09-18T22:17:33.048Z,1.40
2022-09-18T22:20:00.138Z,1.15
2022-09-18T22:22:27.330Z,1.48
2022-09-18T22:24:56.035Z,1.50
2022-09-18T22:27:23.454Z,2.55
2022-09-18T22:29:50.585Z,4.95
2022-09-18T22:32:17.765Z,5.55
2022-09-18T22:34:44.881Z,6.43
2022-09-18T22:37:11.979Z,5.60
2022-09-18T22:39:39.086Z,5.13
2022-09-18T22:42:06.175Z,5.05
2022-09-18T22:44:33.286Z,4.80
2022-09-18T22:47:01.486Z,4.65
2022-09-18T22:49:28.635Z,4.28
2022-09-18T22:51:55.670Z,4.00
2022-09-18T22:54:26.969Z,4.50
2022-09-18T22:56:55.537Z,3.60
2022-09-18T22:59:25.591Z,4.00
2022-09-18T23:02:01.824Z,4.60
2022-09-18T23:04:31.183Z,3.80
2022-09-18T23:09:26.700Z,4.10
2022-09-18T23:11:54.705Z,3.60
2022-09-18T23:14:25.688Z,4.40
2022-09-18T23:16:53.860Z,5.10
2022-09-18T23:19:27.937Z,6.72
2022-09-18T23:21:55.925Z,3.05
2022-09-18T23:24:23.860Z,2.78
2022-09-18T23:26:53.076Z,1.58
2022-09-18T23:29:23.112Z,2.00
2022-09-18T23:31:52.639Z,2.30
2022-09-18T23:34:22.955Z,3.42
2022-09-18T23:36:52.590Z,3.30
2022-09-18T23:39:24.866Z,3.53
2022-09-18T23:41:52.702Z,2.10
2022-09-18T23:44:21.942Z,2.25
2022-09-18T23:49:22.787Z,2.40
2022-09-18T23:51:53.179Z,2.97
2022-09-18T23:54:25.786Z,3.15
2022-09-18T23:56:54.025Z,2.55
2022-09-18T23:59:23.561Z,2.88
